Time;durP1;ratioP1;P1;durP2;ratioP2;P2;SDS_P1;SDS_P2;PMS_P1;PMS_P2;Temp;Humidity;BMP_temperature;BMP_pressure;BME280_temperature;BME280_humidity;BME280_pressure;Samples;Min_cycle;Max_cycle;Signal;HPM_P1;HPM_P2
2021/10/25 00:01:08;;;;;;;8.90;6.43;;;7.20;99.90;;;;;;6186636;22;20156;-85
2021/10/25 00:03:33;;;;;;;16.77;6.27;;;7.20;99.90;;;;;;6262654;22;20200;-85
2021/10/25 00:05:59;;;;;;;6.43;5.13;;;7.20;99.90;;;;;;6235670;22;20223;-85
2021/10/25 00:08:25;;;;;;;10.07;6.30;;;7.30;99.90;;;;;;6235962;22;20210;-84
2021/10/25 00:10:51;;;;;;;10.73;5.93;;;7.30;99.90;;;;;;6261822;22;20211;-85
2021/10/25 00:13:16;;;;;;;6.17;5.23;;;7.20;99.90;;;;;;6236885;22;20253;-85
2021/10/25 00:15:42;;;;;;;7.90;5.73;;;7.30;99.90;;;;;;6235989;22;20262;-84
2021/10/25 00:18:08;;;;;;;8.77;5.83;;;7.30;99.90;;;;;;6235608;22;20643;-84
2021/10/25 00:20:34;;;;;;;6.87;5.00;;;7.40;99.90;;;;;;6210905;22;20196;-85
2021/10/25 00:23:01;;;;;;;7.73;6.40;;;7.60;99.90;;;;;;6235197;22;20192;-85
2021/10/25 00:25:27;;;;;;;10.23;6.47;;;7.70;99.90;;;;;;6236751;22;20184;-85
2021/10/25 00:27:52;;;;;;;10.17;6.03;;;7.90;99.90;;;;;;6210524;22;20196;-85
2021/10/25 00:30:18;;;;;;;9.97;4.63;;;8.10;99.90;;;;;;6210603;22;20197;-85
2021/10/25 00:32:44;;;;;;;11.73;6.80;;;8.20;99.90;;;;;;6236454;22;20547;-87
2021/10/25 00:35:10;;;;;;;12.30;7.47;;;8.30;99.90;;;;;;6235962;22;20197;-84
2021/10/25 00:37:36;;;;;;;9.00;5.60;;;8.40;99.90;;;;;;6263128;22;20214;-85
2021/10/25 00:40:03;;;;;;;9.57;6.70;;;8.40;99.90;;;;;;6186522;22;20165;-85
2021/10/25 00:42:29;;;;;;;8.07;6.33;;;8.50;99.90;;;;;;6262500;22;20196;-84
2021/10/25 00:44:55;;;;;;;14.33;7.70;;;8.50;99.90;;;;;;6262727;22;20270;-84
2021/10/25 00:47:20;;;;;;;14.30;6.77;;;8.50;99.90;;;;;;6235793;22;20192;-85
2021/10/25 00:49:46;;;;;;;7.00;6.30;;;8.40;99.90;;;;;;6235395;22;20550;-84
2021/10/25 00:52:13;;;;;;;16.27;7.73;;;8.40;99.90;;;;;;6237291;22;20588;-85
2021/10/25 00:54:40;;;;;;;11.30;6.50;;;8.40;99.90;;;;;;6235812;22;20539;-85
2021/10/25 00:57:06;;;;;;;7.80;5.43;;;8.40;99.90;;;;;;6235364;22;20231;-85
2021/10/25 00:59:32;;;;;;;8.73;6.53;;;8.40;99.90;;;;;;6210624;22;20576;-85
2021/10/25 01:01:59;;;;;;;14.77;6.27;;;8.40;99.90;;;;;;6235626;22;20294;-85
2021/10/25 01:04:26;;;;;;;11.47;6.40;;;8.30;99.90;;;;;;6263268;22;20153;-85
2021/10/25 01:06:51;;;;;;;8.90;6.40;;;8.30;99.90;;;;;;6236012;22;20219;-85
2021/10/25 01:09:18;;;;;;;6.83;5.63;;;8.20;99.90;;;;;;6235431;22;20639;-84
2021/10/25 01:11:44;;;;;;;11.67;6.10;;;8.20;99.90;;;;;;6262817;22;20209;-85
2021/10/25 01:14:10;;;;;;;10.03;5.30;;;8.20;99.90;;;;;;6210129;22;20192;-85
2021/10/25 01:16:36;;;;;;;6.77;5.23;;;8.20;99.90;;;;;;6212434;22;20157;-84
2021/10/25 01:19:03;;;;;;;8.87;6.43;;;8.20;99.90;;;;;;6237744;22;20163;-85
2021/10/25 01:21:29;;;;;;;8.67;6.20;;;8.20;99.90;;;;;;6212742;22;20203;-85
2021/10/25 01:23:55;;;;;;;8.00;6.80;;;8.20;99.90;;;;;;6263668;22;20528;-85
2021/10/25 01:26:22;;;;;;;6.47;4.17;;;8.20;99.90;;;;;;6212595;22;20257;-85
2021/10/25 01:28:49;;;;;;;9.17;8.27;;;8.10;99.90;;;;;;6236876;22;20161;-84
2021/10/25 01:31:19;;;;;;;14.00;6.10;;;8.20;99.90;;;;;;6238328;22;20165;-85
2021/10/25 01:33:46;;;;;;;10.27;7.47;;;8.20;99.90;;;;;;6237605;22;20198;-85
2021/10/25 01:36:12;;;;;;;9.47;5.87;;;8.20;99.90;;;;;;6237183;22;20220;-85
2021/10/25 01:38:39;;;;;;;13.57;5.47;;;8.30;99.90;;;;;;6264411;22;20674;-85
2021/10/25 01:41:04;;;;;;;8.63;5.50;;;8.30;99.90;;;;;;6236632;22;20238;-84
2021/10/25 01:43:30;;;;;;;7.67;6.80;;;8.20;99.90;;;;;;6213165;22;20593;-85
2021/10/25 01:45:56;;;;;;;10.47;5.37;;;8.20;99.90;;;;;;6236588;22;20200;-85
2021/10/25 01:48:22;;;;;;;15.13;7.43;;;8.20;99.90;;;;;;6237285;22;20464;-85
2021/10/25 01:50:48;;;;;;;7.43;5.53;;;8.20;99.90;;;;;;6237603;22;20196;-85
2021/10/25 01:53:15;;;;;;;8.97;5.37;;;8.20;99.90;;;;;;6237178;22;20197;-85
2021/10/25 01:55:41;;;;;;;16.77;6.60;;;8.20;99.90;;;;;;6264092;22;20170;-85
2021/10/25 01:58:07;;;;;;;10.93;6.13;;;8.20;99.90;;;;;;6187711;22;20622;-85
2021/10/25 02:00:33;;;;;;;9.73;5.90;;;8.20;99.90;;;;;;6236877;22;20197;-84
2021/10/25 02:02:59;;;;;;;15.10;7.43;;;8.30;99.90;;;;;;6237259;22;20258;-85
2021/10/25 02:05:25;;;;;;;7.23;4.53;;;8.30;99.90;;;;;;6211716;22;20204;-85
2021/10/25 02:07:51;;;;;;;9.47;6.40;;;8.30;99.90;;;;;;6236417;22;20446;-85
2021/10/25 02:10:17;;;;;;;9.40;6.33;;;8.20;99.90;;;;;;6212416;22;20216;-85
2021/10/25 02:12:43;;;;;;;12.10;6.43;;;8.30;99.90;;;;;;6237039;22;20228;-84
2021/10/25 02:15:09;;;;;;;6.53;5.67;;;8.20;99.90;;;;;;6211671;22;20267;-85
2021/10/25 02:17:35;;;;;;;11.30;6.47;;;8.20;99.90;;;;;;6263728;22;20196;-84
2021/10/25 02:20:02;;;;;;;9.60;6.80;;;8.20;99.90;;;;;;6211531;22;20195;-84
2021/10/25 02:22:27;;;;;;;10.43;6.47;;;8.20;99.90;;;;;;6264470;22;20157;-85
2021/10/25 02:24:53;;;;;;;8.17;6.43;;;8.20;99.90;;;;;;6263150;22;20208;-84
2021/10/25 02:27:19;;;;;;;15.97;7.40;;;8.20;99.90;;;;;;6236655;22;20201;-84
2021/10/25 02:29:46;;;;;;;7.07;5.67;;;8.10;99.90;;;;;;6212076;22;20200;-85
2021/10/25 02:32:15;;;;;;;10.50;7.60;;;8.10;99.90;;;;;;6236888;22;20185;-84
2021/10/25 02:34:43;;;;;;;6.37;5.70;;;8.10;99.90;;;;;;6263938;22;20244;-85
2021/10/25 02:37:09;;;;;;;6.67;4.90;;;8.20;99.90;;;;;;6237391;22;20168;-84
2021/10/25 02:39:35;;;;;;;10.33;7.30;;;8.10;99.90;;;;;;6211954;22;20203;-84
2021/10/25 02:42:01;;;;;;;11.40;7.33;;;8.20;99.90;;;;;;6236932;22;20271;-86
2021/10/25 02:44:26;;;;;;;9.83;6.03;;;8.30;99.90;;;;;;6211862;22;20196;-85
2021/10/25 02:46:53;;;;;;;12.20;6.83;;;8.30;99.90;;;;;;6263799;22;20165;-84
2021/10/25 02:49:19;;;;;;;9.33;5.87;;;8.30;99.90;;;;;;6237192;22;20163;-84
2021/10/25 02:51:45;;;;;;;11.90;8.37;;;8.30;99.90;;;;;;6212579;22;20196;-85
2021/10/25 02:54:11;;;;;;;10.57;6.57;;;8.20;99.90;;;;;;6263578;22;20274;-85
2021/10/25 02:56:36;;;;;;;8.27;4.83;;;8.10;99.90;;;;;;6237441;22;20200;-85
2021/10/25 02:59:08;;;;;;;8.77;5.80;;;8.10;99.90;;;;;;6236163;22;20262;-85
2021/10/25 03:01:35;;;;;;;10.77;6.57;;;8.10;99.90;;;;;;6237495;22;20635;-85
2021/10/25 03:04:00;;;;;;;11.83;5.80;;;8.10;99.90;;;;;;6263811;22;20227;-85
2021/10/25 03:06:26;;;;;;;7.67;5.30;;;8.10;99.90;;;;;;6236553;22;20213;-84
2021/10/25 03:08:52;;;;;;;10.30;6.40;;;8.10;99.90;;;;;;6211675;22;20276;-85
2021/10/25 03:11:17;;;;;;;18.90;6.20;;;8.10;99.90;;;;;;6236045;22;20419;-84
2021/10/25 03:13:43;;;;;;;9.80;6.20;;;8.10;99.90;;;;;;6211828;22;20169;-85
2021/10/25 03:16:09;;;;;;;15.77;6.97;;;8.10;99.90;;;;;;6211615;22;20168;-84
2021/10/25 03:18:35;;;;;;;10.10;7.97;;;8.10;99.90;;;;;;6237213;22;20196;-85
2021/10/25 03:21:01;;;;;;;9.23;5.53;;;8.10;99.90;;;;;;6236862;22;20200;-85
2021/10/25 03:23:27;;;;;;;12.43;6.97;;;8.10;99.90;;;;;;6211791;22;20231;-85
2021/10/25 03:25:53;;;;;;;8.87;6.83;;;8.10;99.90;;;;;;6211355;22;20611;-84
2021/10/25 03:28:18;;;;;;;9.43;7.13;;;8.10;99.90;;;;;;6236701;22;20485;-84
2021/10/25 03:30:44;;;;;;;9.20;6.20;;;8.10;99.90;;;;;;6236533;22;20540;-84
2021/10/25 03:33:10;;;;;;;10.80;5.83;;;8.20;99.90;;;;;;6236248;22;20196;-85
2021/10/25 03:35:36;;;;;;;9.40;6.73;;;8.20;99.90;;;;;;6186688;22;20661;-84
2021/10/25 03:38:02;;;;;;;7.67;6.17;;;8.20;99.90;;;;;;6210515;22;20195;-84
2021/10/25 03:40:30;;;;;;;7.80;6.07;;;8.20;99.90;;;;;;6236999;22;20153;-85
2021/10/25 03:42:57;;;;;;;9.23;6.87;;;8.30;99.90;;;;;;6211182;22;20619;-84
2021/10/25 03:45:39;;;;;;;7.47;5.30;;;8.30;99.90;;;;;;6236465;22;20204;-85
2021/10/25 03:48:16;;;;;;;15.43;6.80;;;8.30;99.90;;;;;;6214322;22;20284;-84
2021/10/25 03:50:44;;;;;;;9.63;4.73;;;8.30;99.90;;;;;;6263189;22;20188;-85
2021/10/25 03:53:19;;;;;;;7.87;6.00;;;8.30;99.90;;;;;;6262661;22;20184;-85
2021/10/25 03:56:08;;;;;;;10.87;7.27;;;8.40;99.90;;;;;;6213158;22;20163;-85
2021/10/25 04:28:08;;;;;;;8.30;6.47;;;8.40;99.90;;;;;;6212256;22;20473;-85
2021/10/25 04:30:35;;;;;;;7.43;5.20;;;8.40;99.90;;;;;;6263214;22;20222;-85
2021/10/25 04:33:02;;;;;;;7.77;6.50;;;8.30;99.90;;;;;;6236715;22;20196;-84
2021/10/25 04:35:28;;;;;;;10.07;6.07;;;8.40;99.90;;;;;;6236009;22;20192;-85
2021/10/25 04:37:53;;;;;;;6.33;5.50;;;8.40;99.90;;;;;;6264451;22;20184;-85
2021/10/25 04:40:19;;;;;;;8.50;5.67;;;8.40;99.90;;;;;;6238161;22;20376;-84
2021/10/25 04:42:46;;;;;;;9.33;5.33;;;8.40;99.90;;;;;;6237810;22;20200;-84
2021/10/25 04:45:12;;;;;;;10.07;6.40;;;8.40;99.90;;;;;;6213206;22;20205;-85
2021/10/25 04:47:38;;;;;;;7.93;6.47;;;8.40;99.90;;;;;;6265394;22;20200;-85
2021/10/25 04:50:05;;;;;;;8.17;7.37;;;8.50;99.90;;;;;;6239289;22;20196;-84
2021/10/25 04:52:31;;;;;;;11.43;7.30;;;8.50;99.90;;;;;;6269604;22;20171;-85
2021/10/25 04:54:57;;;;;;;6.37;5.73;;;8.50;99.90;;;;;;6242326;22;20207;-85
2021/10/25 04:57:22;;;;;;;5.97;4.37;;;8.50;99.90;;;;;;6244492;22;20196;-85
2021/10/25 04:59:48;;;;;;;8.10;5.17;;;8.60;99.90;;;;;;6245124;22;20220;-86
2021/10/25 05:02:14;;;;;;;6.17;4.53;;;8.60;99.90;;;;;;6220190;22;20226;-87
2021/10/25 05:04:41;;;;;;;10.07;6.00;;;8.60;99.90;;;;;;6221521;22;20495;-88
2021/10/25 05:07:06;;;;;;;7.10;5.93;;;8.60;99.90;;;;;;6246059;22;20596;-84
2021/10/25 05:09:33;;;;;;;11.07;6.97;;;8.70;99.90;;;;;;6265352;22;20242;-86
2021/10/25 05:11:59;;;;;;;8.07;5.43;;;8.70;99.90;;;;;;6265491;22;20511;-86
2021/10/25 05:14:25;;;;;;;5.97;4.87;;;8.70;99.90;;;;;;6214762;22;20265;-86
2021/10/25 05:16:51;;;;;;;6.87;5.87;;;8.80;99.90;;;;;;6190121;22;20583;-85
2021/10/25 05:19:17;;;;;;;5.93;5.03;;;8.80;99.90;;;;;;6239591;22;20631;-85
2021/10/25 05:21:43;;;;;;;11.73;6.90;;;8.80;99.90;;;;;;6225385;22;20267;-86
2021/10/25 05:24:08;;;;;;;6.30;5.43;;;8.80;99.90;;;;;;6213595;22;20201;-85
2021/10/25 05:26:34;;;;;;;10.80;7.23;;;8.90;99.90;;;;;;6266052;22;20212;-86
2021/10/25 05:29:00;;;;;;;14.07;6.30;;;8.80;99.90;;;;;;6190988;22;20690;-85
2021/10/25 05:31:26;;;;;;;9.07;5.73;;;8.80;99.90;;;;;;6193690;22;20160;-86
2021/10/25 05:33:52;;;;;;;5.90;4.70;;;8.80;99.90;;;;;;6240008;22;20475;-85
2021/10/25 05:36:19;;;;;;;6.17;5.13;;;8.80;99.90;;;;;;6240608;22;20204;-86
2021/10/25 05:38:45;;;;;;;11.23;6.00;;;8.90;99.90;;;;;;6241273;22;20262;-85
2021/10/25 05:41:13;;;;;;;8.47;5.00;;;8.90;99.90;;;;;;6218428;22;20699;-86
2021/10/25 05:43:39;;;;;;;7.40;5.43;;;9.00;99.90;;;;;;6273556;22;20157;-86
2021/10/25 05:46:05;;;;;;;8.33;5.10;;;9.00;99.90;;;;;;6248451;22;20322;-89
2021/10/25 05:48:32;;;;;;;7.87;6.63;;;9.00;99.90;;;;;;6246201;22;20203;-85
2021/10/25 05:50:59;;;;;;;8.90;7.13;;;9.00;99.90;;;;;;6249223;22;20196;-86
2021/10/25 05:53:25;;;;;;;8.57;5.80;;;9.00;99.90;;;;;;6226045;22;20215;-87
2021/10/25 05:55:51;;;;;;;18.77;8.40;;;9.00;99.90;;;;;;6279093;22;20169;-86
2021/10/25 05:58:21;;;;;;;7.50;5.17;;;9.00;99.90;;;;;;6203032;22;20157;-86
2021/10/25 06:00:54;;;;;;;8.40;6.27;;;9.00;99.90;;;;;;6206975;22;20196;-87
2021/10/25 06:03:25;;;;;;;8.73;6.07;;;9.10;99.90;;;;;;6281179;22;20259;-86
2021/10/25 06:05:51;;;;;;;10.93;6.77;;;9.10;99.90;;;;;;6243285;22;20220;-88
2021/10/25 06:08:18;;;;;;;8.43;6.07;;;9.10;99.90;;;;;;6266333;22;20589;-87
2021/10/25 06:10:45;;;;;;;9.83;7.17;;;9.10;99.90;;;;;;6264875;22;20201;-86
2021/10/25 06:13:20;;;;;;;12.27;8.40;;;9.10;99.90;;;;;;6265754;22;20152;-84
2021/10/25 06:15:55;;;;;;;14.20;7.60;;;9.10;99.90;;;;;;6263929;22;20222;-86
2021/10/25 06:18:21;;;;;;;14.37;8.33;;;9.10;99.90;;;;;;6246604;22;20192;-86
2021/10/25 06:20:47;;;;;;;7.33;6.27;;;9.10;99.90;;;;;;6213166;22;20207;-86
2021/10/25 06:23:14;;;;;;;10.87;7.83;;;9.10;99.90;;;;;;6265714;22;20200;-87
2021/10/25 06:25:42;;;;;;;10.90;8.03;;;9.20;99.90;;;;;;6214069;22;20565;-87
2021/10/25 06:28:09;;;;;;;11.83;6.87;;;9.20;99.90;;;;;;6242357;22;20319;-88
2021/10/25 06:30:37;;;;;;;11.03;7.43;;;9.30;99.90;;;;;;6280709;22;20189;-86
2021/10/25 06:33:04;;;;;;;11.53;7.43;;;9.30;99.90;;;;;;6275104;22;20296;-87
2021/10/25 06:35:31;;;;;;;12.90;8.53;;;9.40;99.90;;;;;;6265623;22;20198;-87
2021/10/25 06:38:10;;;;;;;12.27;7.97;;;9.40;99.90;;;;;;6238952;22;20645;-87
2021/10/25 06:40:36;;;;;;;32.80;8.50;;;9.40;99.90;;;;;;6265571;22;20542;-87
2021/10/25 06:43:02;;;;;;;11.87;7.57;;;9.50;99.90;;;;;;6213536;22;20187;-88
2021/10/25 06:45:27;;;;;;;14.47;9.00;;;9.50;99.90;;;;;;6264582;22;20639;-87
2021/10/25 06:47:54;;;;;;;13.07;8.60;;;9.50;99.90;;;;;;6236964;22;20639;-86
2021/10/25 06:50:28;;;;;;;14.70;9.90;;;9.60;99.90;;;;;;6212149;22;20192;-86
2021/10/25 06:53:05;;;;;;;13.57;9.33;;;9.60;99.90;;;;;;6237829;22;20148;-86
2021/10/25 06:55:33;;;;;;;12.47;7.43;;;9.70;99.90;;;;;;6264578;22;20280;-87
2021/10/25 06:57:58;;;;;;;18.73;9.33;;;9.70;99.90;;;;;;6212192;22;20243;-88
2021/10/25 07:00:24;;;;;;;14.00;9.67;;;9.70;99.90;;;;;;6212654;22;20663;-87
2021/10/25 07:02:51;;;;;;;13.23;7.70;;;9.70;99.90;;;;;;6213910;22;20189;-87
2021/10/25 07:05:17;;;;;;;13.17;8.73;;;9.80;99.90;;;;;;6238328;22;20215;-87
2021/10/25 07:07:43;;;;;;;15.27;9.87;;;9.80;99.90;;;;;;6264200;22;20153;-87
2021/10/25 07:10:10;;;;;;;14.17;8.90;;;9.90;99.90;;;;;;6238496;22;20156;-90
2021/10/25 07:12:36;;;;;;;14.93;8.53;;;9.90;99.90;;;;;;6264415;22;20698;-88
2021/10/25 07:15:04;;;;;;;13.67;7.73;;;9.90;99.90;;;;;;6265296;22;20200;-88
2021/10/25 07:17:46;;;;;;;14.87;8.80;;;10.00;99.90;;;;;;6237913;22;20185;-88
2021/10/25 07:20:20;;;;;;;12.53;7.27;;;10.00;99.90;;;;;;6215910;22;20196;-88
2021/10/25 08:12:16;;;;;;;13.13;7.63;;;10.80;99.90;;;;;;6177875;22;20225;-88
2021/10/25 08:14:49;;;;;;;18.40;8.93;;;10.80;99.90;;;;;;6263822;22;20196;-86
2021/10/25 08:17:20;;;;;;;15.90;9.60;;;10.80;99.90;;;;;;6263536;22;20196;-87
2021/10/25 08:19:47;;;;;;;12.40;7.87;;;10.90;99.90;;;;;;6236384;22;20256;-86
2021/10/25 08:22:16;;;;;;;18.20;9.47;;;10.90;99.90;;;;;;6264270;22;20156;-87
2021/10/25 08:24:52;;;;;;;11.83;7.80;;;10.90;99.90;;;;;;6238016;22;20624;-88
2021/10/25 08:27:20;;;;;;;13.23;8.17;;;10.90;99.90;;;;;;6239286;22;20203;-84
2021/10/25 08:29:47;;;;;;;16.37;8.67;;;11.00;99.90;;;;;;6264846;22;20188;-85
2021/10/25 08:39:57;;;;;;;15.77;6.93;;;11.20;99.90;;;;;;6265286;22;20528;-87
2021/10/25 08:42:41;;;;;;;16.63;9.60;;;11.20;99.90;;;;;;6238013;22;20196;-87
2021/10/25 08:45:17;;;;;;;11.83;6.53;;;11.20;99.90;;;;;;6265277;22;20224;-84
2021/10/25 08:47:46;;;;;;;17.33;8.27;;;11.30;99.90;;;;;;6266024;22;20200;-86
2021/10/25 08:50:22;;;;;;;15.87;7.77;;;11.30;99.90;;;;;;6287181;22;20235;-86
2021/10/25 08:52:49;;;;;;;16.87;8.77;;;11.30;99.90;;;;;;6264591;22;20175;-86
2021/10/25 08:55:19;;;;;;;13.47;7.60;;;11.30;99.90;;;;;;6265414;22;20164;-86
2021/10/25 08:57:49;;;;;;;14.97;8.23;;;11.30;99.90;;;;;;6237472;22;20265;-87
2021/10/25 09:00:21;;;;;;;11.67;7.10;;;11.30;99.90;;;;;;6264067;22;20279;-86
2021/10/25 09:02:59;;;;;;;12.90;7.57;;;11.30;99.90;;;;;;6264144;22;20486;-85
2021/10/25 09:05:25;;;;;;;17.30;9.57;;;11.40;99.90;;;;;;6237291;22;20208;-87
2021/10/25 09:07:54;;;;;;;13.63;6.27;;;11.40;99.90;;;;;;6238603;22;20153;-84
2021/10/25 09:10:36;;;;;;;10.90;7.37;;;11.50;99.90;;;;;;6237624;22;20157;-86
2021/10/25 09:13:17;;;;;;;11.57;6.07;;;11.50;99.90;;;;;;6238112;22;20177;-86
2021/10/25 09:15:52;;;;;;;7.77;5.80;;;11.50;99.90;;;;;;6265896;22;20196;-86
2021/10/25 09:18:24;;;;;;;9.93;6.50;;;11.50;99.90;;;;;;6238417;22;20189;-85
2021/10/25 09:20:58;;;;;;;12.10;6.07;;;11.50;99.90;;;;;;6230629;22;20213;-84
2021/10/25 09:23:27;;;;;;;10.20;7.30;;;11.60;99.90;;;;;;6238917;22;20195;-87
2021/10/25 09:25:54;;;;;;;7.97;5.63;;;11.60;99.90;;;;;;6236845;22;20687;-85
2021/10/25 09:28:30;;;;;;;10.80;7.30;;;11.60;99.90;;;;;;6238390;22;20180;-86
2021/10/25 09:31:08;;;;;;;7.10;6.17;;;11.70;99.90;;;;;;6264411;22;20192;-86
2021/10/25 09:33:39;;;;;;;10.23;6.77;;;11.70;99.90;;;;;;6237852;22;20283;-88
2021/10/25 09:36:09;;;;;;;12.13;6.17;;;11.60;99.90;;;;;;6239709;22;20254;-87
2021/10/25 09:50:01;;;;;;;11.93;7.10;;;12.10;99.90;;;;;;6263940;22;20192;-85
2021/10/25 09:52:46;;;;;;;10.97;6.77;;;12.20;99.90;;;;;;6213326;22;20181;-84
2021/10/25 09:55:14;;;;;;;13.90;6.53;;;12.10;99.90;;;;;;6238366;22;20176;-86
2021/10/25 09:57:59;;;;;;;14.10;6.27;;;12.20;99.90;;;;;;6265291;22;20200;-85
2021/10/25 10:00:26;;;;;;;11.40;6.40;;;12.10;99.90;;;;;;6238184;22;20196;-85
2021/10/25 10:02:51;;;;;;;11.67;6.40;;;12.20;99.90;;;;;;6212276;22;20196;-87
2021/10/25 10:05:18;;;;;;;10.77;5.73;;;12.20;99.90;;;;;;6236375;22;20282;-86
2021/10/25 10:07:45;;;;;;;15.60;6.10;;;12.10;99.90;;;;;;6236533;22;20211;-86
2021/10/25 10:10:13;;;;;;;8.17;5.37;;;12.20;99.90;;;;;;6237534;22;20695;-84
2021/10/25 10:12:41;;;;;;;11.67;7.17;;;12.20;99.90;;;;;;6263383;22;20212;-87
2021/10/25 10:15:08;;;;;;;10.10;6.03;;;12.10;99.90;;;;;;6236915;22;20643;-86
2021/10/25 10:17:40;;;;;;;13.10;5.30;;;12.20;99.90;;;;;;6263704;22;20196;-87
2021/10/25 10:20:20;;;;;;;13.47;7.00;;;12.20;99.90;;;;;;6237157;22;20193;-85
2021/10/25 10:22:52;;;;;;;12.53;6.23;;;12.20;99.90;;;;;;6237146;22;20537;-86
2021/10/25 10:25:33;;;;;;;7.80;5.90;;;12.20;99.90;;;;;;6263577;22;20358;-86
2021/10/25 10:28:07;;;;;;;13.77;6.40;;;12.30;99.90;;;;;;6236724;22;20200;-87
2021/10/25 10:30:47;;;;;;;8.20;4.83;;;12.30;99.90;;;;;;6263362;22;20196;-86
2021/10/25 10:33:13;;;;;;;9.97;6.20;;;12.30;99.90;;;;;;6263773;22;20200;-87
2021/10/25 10:35:44;;;;;;;7.50;4.07;;;12.30;99.90;;;;;;6263835;22;20200;-87
2021/10/25 10:38:10;;;;;;;13.33;6.03;;;12.50;99.90;;;;;;6264153;22;20250;-87
2021/10/25 10:40:50;;;;;;;9.33;4.70;;;12.70;99.90;;;;;;6204437;22;20175;-85
2021/10/25 10:43:25;;;;;;;10.60;6.53;;;12.60;99.90;;;;;;6235930;22;20279;-87
2021/10/25 10:46:04;;;;;;;6.87;5.23;;;12.50;99.90;;;;;;6235675;22;20196;-86
2021/10/25 10:48:35;;;;;;;9.77;5.87;;;12.40;99.90;;;;;;6263207;22;20196;-89
2021/10/25 10:51:12;;;;;;;12.73;7.67;;;12.50;99.90;;;;;;6238715;22;20196;-88
2021/10/25 10:53:55;;;;;;;11.40;6.50;;;12.50;99.90;;;;;;6237331;22;20220;-86
2021/10/25 10:56:30;;;;;;;11.20;5.50;;;12.50;99.90;;;;;;6263848;22;20223;-87
2021/10/25 11:01:34;;;;;;;7.50;5.13;;;12.40;99.90;;;;;;6268327;22;20157;-95
2021/10/25 11:04:04;;;;;;;12.17;5.57;;;12.30;99.90;;;;;;6242104;22;20200;-94
2021/10/25 11:06:34;;;;;;;11.90;6.17;;;12.40;99.90;;;;;;6243282;22;20196;-94
2021/10/25 11:09:11;;;;;;;11.17;6.40;;;12.40;99.90;;;;;;6238466;22;20488;-91
2021/10/25 11:11:41;;;;;;;9.27;4.50;;;12.30;99.90;;;;;;6216100;22;20202;-91
2021/10/25 11:14:14;;;;;;;10.67;5.50;;;12.30;99.90;;;;;;6232472;22;20203;-93
2021/10/25 11:16:43;;;;;;;5.40;4.07;;;12.30;99.90;;;;;;6269025;22;20212;-93
2021/10/25 11:19:11;;;;;;;9.40;4.73;;;12.30;99.90;;;;;;6269639;22;20160;-94
2021/10/25 11:21:54;;;;;;;7.03;4.73;;;12.30;99.90;;;;;;6242588;22;20223;-93
2021/10/25 11:24:22;;;;;;;8.93;4.40;;;12.20;99.90;;;;;;6241861;22;20196;-93
2021/10/25 11:26:51;;;;;;;6.40;3.93;;;12.30;99.90;;;;;;6244607;22;20215;-94
2021/10/25 11:29:24;;;;;;;8.87;5.70;;;12.30;99.90;;;;;;6243334;22;20192;-95
2021/10/25 11:31:54;;;;;;;7.47;4.60;;;12.30;99.90;;;;;;6243545;22;20198;-94
2021/10/25 11:34:26;;;;;;;12.03;5.37;;;12.40;99.90;;;;;;6243100;22;20183;-92
2021/10/25 11:37:11;;;;;;;11.63;6.20;;;12.40;99.90;;;;;;6242595;22;20259;-94
2021/10/25 11:39:46;;;;;;;11.50;6.70;;;12.60;99.90;;;;;;6244142;22;20193;-95
2021/10/25 11:42:18;;;;;;;11.03;6.70;;;12.60;99.90;;;;;;6268515;22;20192;-96
2021/10/25 11:44:50;;;;;;;8.23;4.93;;;12.70;99.90;;;;;;6245656;22;20203;-96
2021/10/25 11:47:28;;;;;;;12.97;7.23;;;12.60;99.90;;;;;;6241833;22;20200;-93
2021/10/25 11:50:04;;;;;;;9.87;6.73;;;12.80;99.90;;;;;;6240347;22;20152;-91
2021/10/25 11:53:04;;;;;;;10.67;6.33;;;12.60;99.90;;;;;;6241601;22;20153;-92
2021/10/25 11:55:40;;;;;;;10.00;6.73;;;12.70;99.90;;;;;;6176680;22;20303;-89
2021/10/25 11:58:13;;;;;;;11.67;7.33;;;12.60;99.90;;;;;;6241692;22;20187;-91
2021/10/25 12:00:48;;;;;;;11.83;5.83;;;12.70;99.90;;;;;;6240849;22;20227;-91
2021/10/25 12:03:16;;;;;;;13.40;7.67;;;12.70;99.90;;;;;;6240891;22;20192;-88
2021/10/25 12:05:43;;;;;;;13.30;7.87;;;12.80;99.90;;;;;;6252258;22;20283;-84
2021/10/25 12:08:11;;;;;;;12.67;7.33;;;12.70;99.90;;;;;;6264203;22;20184;-86
2021/10/25 12:10:38;;;;;;;10.43;6.97;;;12.80;99.90;;;;;;6238173;22;20254;-85
2021/10/25 12:13:06;;;;;;;13.03;7.73;;;12.80;99.90;;;;;;6240149;22;20165;-87
2021/10/25 12:15:36;;;;;;;19.10;8.90;;;12.80;99.90;;;;;;6265213;22;20196;-86
2021/10/25 12:18:05;;;;;;;17.87;10.57;;;12.90;99.90;;;;;;6238707;22;20235;-86
2021/10/25 12:20:36;;;;;;;14.23;7.37;;;12.90;99.90;;;;;;6238598;22;20196;-86
2021/10/25 12:23:14;;;;;;;16.60;7.13;;;12.90;99.90;;;;;;6238862;22;20497;-85
2021/10/25 12:25:40;;;;;;;14.67;9.63;;;12.90;99.90;;;;;;6238499;22;20184;-86
2021/10/25 12:28:14;;;;;;;14.87;8.83;;;12.90;99.90;;;;;;6238654;22;20152;-85
2021/10/25 12:30:40;;;;;;;15.27;7.77;;;12.90;99.90;;;;;;6238958;22;20197;-85
2021/10/25 12:33:06;;;;;;;18.30;7.90;;;12.90;99.90;;;;;;6213939;22;20193;-88
2021/10/25 12:35:34;;;;;;;18.07;9.87;;;12.80;99.90;;;;;;6212862;22;20200;-86
2021/10/25 12:38:01;;;;;;;18.93;9.37;;;12.80;99.90;;;;;;6239170;22;20263;-85
2021/10/25 12:40:27;;;;;;;14.23;8.10;;;12.90;99.90;;;;;;6239233;22;20227;-85
2021/10/25 12:43:00;;;;;;;18.47;9.60;;;12.80;99.90;;;;;;6237954;22;20208;-86
2021/10/25 12:45:31;;;;;;;13.47;7.73;;;12.80;99.90;;;;;;6236559;22;20570;-87
2021/10/25 12:48:00;;;;;;;15.47;10.40;;;12.80;99.90;;;;;;6237505;22;20362;-86
2021/10/25 12:50:34;;;;;;;17.37;8.60;;;12.80;99.90;;;;;;6237283;22;20192;-87
2021/10/25 12:53:08;;;;;;;24.10;10.17;;;12.80;99.90;;;;;;6265901;22;20193;-87
2021/10/25 12:55:35;;;;;;;14.70;8.30;;;12.80;99.90;;;;;;6265791;22;20157;-88
2021/10/25 12:58:00;;;;;;;18.90;8.83;;;12.80;99.90;;;;;;6239165;22;20193;-87
2021/10/25 13:00:27;;;;;;;14.53;8.73;;;12.80;99.90;;;;;;6238748;22;20888;-85
2021/10/25 13:02:54;;;;;;;22.37;11.33;;;12.80;99.90;;;;;;6214165;22;20564;-86
2021/10/25 13:05:24;;;;;;;20.43;9.20;;;12.70;99.90;;;;;;6238040;22;20253;-85
2021/10/25 13:07:55;;;;;;;14.50;7.57;;;12.70;99.90;;;;;;6239235;22;20153;-86
2021/10/25 13:10:26;;;;;;;20.53;10.43;;;12.70;99.90;;;;;;6265866;22;20149;-86
2021/10/25 13:12:53;;;;;;;17.73;9.33;;;12.70;99.90;;;;;;6240695;22;20254;-86
2021/10/25 13:15:23;;;;;;;21.43;9.67;;;12.70;99.90;;;;;;6240446;22;20206;-87
2021/10/25 13:17:50;;;;;;;19.93;8.97;;;12.70;99.90;;;;;;6240782;22;20208;-87
2021/10/25 13:20:18;;;;;;;16.17;9.13;;;12.80;99.90;;;;;;6215633;22;20812;-87
2021/10/25 13:22:48;;;;;;;13.37;6.73;;;12.80;99.90;;;;;;6242555;22;20164;-85
2021/10/25 13:25:14;;;;;;;16.90;9.53;;;12.70;99.90;;;;;;6242749;22;20172;-86
2021/10/25 13:27:42;;;;;;;19.33;8.73;;;12.70;99.90;;;;;;6240590;22;20636;-86
2021/10/25 13:30:09;;;;;;;18.80;9.93;;;12.80;99.90;;;;;;6241211;22;20208;-87
2021/10/25 13:32:35;;;;;;;18.77;8.57;;;12.70;99.90;;;;;;6218338;22;20200;-87
2021/10/25 13:35:01;;;;;;;20.43;8.60;;;12.80;99.90;;;;;;6244421;22;20199;-88
2021/10/25 13:37:27;;;;;;;18.70;7.93;;;12.70;99.90;;;;;;6264246;22;20235;-85
2021/10/25 13:39:53;;;;;;;20.23;8.47;;;12.70;99.90;;;;;;6215280;22;20246;-83
2021/10/25 13:42:18;;;;;;;25.30;10.17;;;12.80;99.90;;;;;;6214644;22;20959;-86
2021/10/25 13:44:44;;;;;;;11.33;9.43;;;12.80;99.90;;;;;;6267604;22;20227;-88
2021/10/25 13:47:10;;;;;;;19.27;10.80;;;12.90;99.90;;;;;;6240949;22;20304;-85
2021/10/25 13:49:36;;;;;;;22.80;12.37;;;12.80;99.90;;;;;;6191244;22;20212;-85
2021/10/25 13:52:03;;;;;;;16.83;11.33;;;12.80;99.90;;;;;;6217135;22;20165;-86
2021/10/25 13:54:30;;;;;;;22.60;11.63;;;12.70;99.90;;;;;;6240759;22;20284;-85
2021/10/25 13:56:57;;;;;;;13.47;8.50;;;12.70;99.90;;;;;;6216252;22;20204;-85
2021/10/25 13:59:25;;;;;;;22.53;10.93;;;12.80;99.90;;;;;;6213300;22;20287;-86
2021/10/25 14:01:51;;;;;;;19.17;10.40;;;12.70;99.90;;;;;;6212643;22;20165;-86
2021/10/25 14:04:19;;;;;;;19.97;10.03;;;12.70;99.90;;;;;;6264883;22;20245;-87
2021/10/25 14:06:46;;;;;;;15.70;9.33;;;12.70;99.90;;;;;;6237830;22;20526;-86
2021/10/25 14:09:12;;;;;;;19.80;10.43;;;12.80;99.90;;;;;;6266504;22;20196;-86
2021/10/25 14:11:44;;;;;;;18.20;10.60;;;12.90;99.90;;;;;;6267242;22;20211;-87
2021/10/25 14:16:42;;;;;;;16.33;7.43;;;12.90;99.90;;;;;;6266388;22;20161;-86
2021/10/25 14:19:08;;;;;;;12.53;8.07;;;12.80;99.90;;;;;;6268201;22;20243;-85
2021/10/25 14:21:36;;;;;;;21.27;9.83;;;12.80;99.90;;;;;;6240382;22;20288;-86
2021/10/25 14:24:05;;;;;;;19.87;9.17;;;12.70;99.90;;;;;;6241267;22;20199;-86
2021/10/25 14:26:31;;;;;;;24.97;11.60;;;12.60;99.90;;;;;;6266833;22;20279;-87
2021/10/25 14:28:57;;;;;;;14.60;7.80;;;12.60;99.90;;;;;;6266946;22;20184;-85
2021/10/25 14:31:24;;;;;;;15.67;9.57;;;12.60;99.90;;;;;;6240262;22;20458;-86
2021/10/25 14:33:51;;;;;;;18.47;9.27;;;12.50;99.90;;;;;;6267007;22;20230;-88
2021/10/25 14:36:18;;;;;;;16.00;7.67;;;12.40;99.90;;;;;;6267172;22;20201;-88